createdAt,value
2019-02-14T00:01:42.330Z,9.37
2019-02-14T00:04:13.623Z,9.07
2019-02-14T00:06:44.929Z,9.30
2019-02-14T00:09:16.637Z,8.70
2019-02-14T00:11:47.617Z,11.30
2019-02-14T00:14:19.464Z,7.80
2019-02-14T00:16:50.476Z,7.70
2019-02-14T00:19:22.081Z,7.57
2019-02-14T00:21:53.705Z,13.13
2019-02-14T00:24:24.731Z,11.43
2019-02-14T00:26:56.173Z,10.17
2019-02-14T00:29:27.530Z,7.00
2019-02-14T00:32:08.048Z,11.13
2019-02-14T00:34:44.044Z,11.27
2019-02-14T00:37:17.211Z,10.57
2019-02-14T00:39:53.537Z,8.40
2019-02-14T00:42:39.782Z,9.03
2019-02-14T00:45:19.774Z,8.47
2019-02-14T00:47:53.411Z,12.30
2019-02-14T00:50:29.378Z,8.33
2019-02-14T00:53:00.006Z,7.97
2019-02-14T00:55:31.992Z,7.57
2019-02-14T00:58:03.729Z,8.53
2019-02-14T01:00:53.224Z,8.90
2019-02-14T01:03:42.582Z,9.07
2019-02-14T01:06:22.261Z,10.30
2019-02-14T01:08:53.860Z,9.53
2019-02-14T01:11:25.961Z,8.30
2019-02-14T01:14:07.891Z,7.47
2019-02-14T01:16:38.794Z,12.20
2019-02-14T01:19:09.978Z,9.00
2019-02-14T01:21:41.647Z,10.97
2019-02-14T01:24:13.051Z,8.77
2019-02-14T01:26:44.010Z,12.37
2019-02-14T01:29:15.837Z,11.63
2019-02-14T01:31:47.145Z,8.47
2019-02-14T01:34:18.147Z,11.27
2019-02-14T01:36:49.642Z,8.80
2019-02-14T01:39:21.571Z,10.00
2019-02-14T01:41:52.989Z,8.83
2019-02-14T01:44:24.608Z,8.90
2019-02-14T01:46:55.848Z,9.17
2019-02-14T01:49:34.520Z,10.47
2019-02-14T01:52:05.789Z,11.07
2019-02-14T01:54:37.449Z,11.63
2019-02-14T01:57:09.268Z,11.93
2019-02-14T01:59:40.753Z,15.43
2019-02-14T03:01:59.576Z,20.83
2019-02-14T03:04:30.653Z,17.07
2019-02-14T03:07:02.284Z,12.90
2019-02-14T03:09:33.422Z,12.50
2019-02-14T03:16:05.447Z,14.33
2019-02-14T03:18:36.120Z,15.03
2019-02-14T03:21:07.185Z,12.67
2019-02-14T03:23:38.935Z,11.80
2019-02-14T03:26:10.226Z,11.20
2019-02-14T03:28:41.218Z,11.60
2019-02-14T03:31:12.846Z,12.80
2019-02-14T03:33:43.932Z,10.43
2019-02-14T03:36:19.104Z,10.67
2019-02-14T03:38:47.463Z,11.30
2019-02-14T03:41:19.124Z,11.07
2019-02-14T03:43:50.147Z,11.63
2019-02-14T03:46:21.493Z,12.20
2019-02-14T03:48:53.507Z,12.47
2019-02-14T03:51:25.184Z,11.77
2019-02-14T03:53:56.134Z,11.70
2019-02-14T03:56:27.099Z,12.63
2019-02-14T03:58:58.440Z,13.20
2019-02-14T04:01:29.822Z,10.20
2019-02-14T04:04:01.171Z,11.57
2019-02-14T04:06:32.522Z,14.53
2019-02-14T04:09:05.221Z,11.40
2019-02-14T04:11:36.835Z,12.30
2019-02-14T04:14:08.670Z,13.50
2019-02-14T04:20:28.267Z,11.80
2019-02-14T04:22:59.314Z,12.50
2019-02-14T04:25:30.694Z,11.20
2019-02-14T04:28:02.342Z,11.83
2019-02-14T04:30:33.840Z,10.63
2019-02-14T04:33:04.806Z,15.60
2019-02-14T04:35:36.499Z,13.93
2019-02-14T04:38:07.313Z,10.90
2019-02-14T04:40:37.634Z,10.93
2019-02-14T04:43:08.560Z,11.63
2019-02-14T04:45:39.598Z,11.40
2019-02-14T04:48:10.969Z,11.40
2019-02-14T04:50:42.302Z,13.17
2019-02-14T04:53:13.418Z,9.67
2019-02-14T04:55:54.505Z,9.83
2019-02-14T04:58:26.141Z,14.37
2019-02-14T05:00:57.504Z,11.90
2019-02-14T05:03:28.865Z,11.10
2019-02-14T05:06:01.592Z,10.03
2019-02-14T05:08:33.178Z,11.20
2019-02-14T05:11:04.868Z,12.60
2019-02-14T05:13:36.577Z,15.10
2019-02-14T05:16:07.664Z,18.83
2019-02-14T05:18:39.740Z,11.60
2019-02-14T05:21:11.081Z,9.83
2019-02-14T05:23:42.433Z,13.17
2019-02-14T05:26:13.466Z,12.27
2019-02-14T05:28:44.829Z,10.13
2019-02-14T05:31:15.546Z,11.33
2019-02-14T05:33:46.592Z,13.67
2019-02-14T05:36:17.942Z,12.10
2019-02-14T05:38:49.277Z,13.67
2019-02-14T05:41:21.037Z,9.77
2019-02-14T05:43:52.389Z,11.47
2019-02-14T05:46:23.704Z,11.87
2019-02-14T05:48:54.722Z,12.00
2019-02-14T05:51:26.032Z,12.83
2019-02-14T05:53:57.485Z,13.37
2019-02-14T05:56:29.424Z,13.20
2019-02-14T05:59:00.071Z,15.00
2019-02-14T06:01:32.024Z,11.43
2019-02-14T06:04:02.700Z,13.00
2019-02-14T06:06:39.651Z,12.93
2019-02-14T06:09:10.744Z,13.03
2019-02-14T06:11:42.310Z,12.00
2019-02-14T06:14:13.693Z,14.10
2019-02-14T06:16:44.832Z,14.50
2019-02-14T06:19:32.436Z,13.77
2019-02-14T06:22:03.801Z,10.53
2019-02-14T06:24:35.159Z,11.07
2019-02-14T06:27:06.275Z,15.43
2019-02-14T06:29:37.997Z,14.73
2019-02-14T06:32:08.687Z,12.50
2019-02-14T06:34:39.837Z,13.77
2019-02-14T06:37:11.097Z,14.57
2019-02-14T06:39:42.569Z,14.73
2019-02-14T06:42:30.004Z,12.67
2019-02-14T06:45:01.637Z,13.73
2019-02-14T06:47:38.182Z,12.07
2019-02-14T06:50:09.185Z,15.70
2019-02-14T06:52:40.993Z,12.27
2019-02-14T06:55:11.656Z,12.23
2019-02-14T06:57:42.302Z,13.07
2019-02-14T07:00:15.355Z,11.47
2019-02-14T07:02:46.728Z,11.93
2019-02-14T07:05:18.095Z,15.87
2019-02-14T07:07:49.689Z,11.30
2019-02-14T07:10:21.239Z,19.10
2019-02-14T07:12:52.898Z,14.97
2019-02-14T07:15:36.489Z,15.20
2019-02-14T07:18:07.992Z,12.40
2019-02-14T07:20:39.568Z,11.53
2019-02-14T07:23:11.241Z,13.77
2019-02-14T07:25:42.413Z,12.37
2019-02-14T07:28:14.163Z,12.67
2019-02-14T07:30:45.583Z,15.93
2019-02-14T07:33:16.813Z,14.07
2019-02-14T07:35:48.271Z,12.90
2019-02-14T07:38:19.326Z,12.27
2019-02-14T07:40:50.875Z,12.57
2019-02-14T07:43:22.354Z,12.90
2019-02-14T07:45:54.180Z,12.33
2019-02-14T07:48:25.930Z,11.47
2019-02-14T07:50:56.657Z,12.00
2019-02-14T07:53:27.519Z,12.10
2019-02-14T07:55:58.897Z,12.43
2019-02-14T07:58:30.726Z,13.50
2019-02-14T08:01:01.696Z,14.23
2019-02-14T08:03:32.980Z,13.07
2019-02-14T08:06:05.015Z,11.77
2019-02-14T08:08:36.433Z,12.00
2019-02-14T08:11:08.846Z,14.03
2019-02-14T08:13:40.221Z,12.73
2019-02-14T08:16:11.215Z,13.40
2019-02-14T08:18:42.564Z,12.13
2019-02-14T08:21:14.230Z,11.73
2019-02-14T08:23:45.262Z,11.37
2019-02-14T08:26:16.649Z,12.17
2019-02-14T08:28:48.128Z,12.70
2019-02-14T08:31:20.042Z,13.17
2019-02-14T08:33:51.169Z,11.87
2019-02-14T08:36:22.844Z,14.60
2019-02-14T08:38:53.842Z,14.50
2019-02-14T08:41:25.288Z,11.40
2019-02-14T08:44:12.404Z,12.23
2019-02-14T08:46:43.777Z,12.93
2019-02-14T08:49:15.329Z,12.70
2019-02-14T08:51:46.029Z,12.30
2019-02-14T08:54:17.950Z,13.17
2019-02-14T08:56:49.394Z,13.70
2019-02-14T08:59:20.844Z,13.87
2019-02-14T09:01:51.526Z,13.73
2019-02-14T09:04:23.099Z,14.47
2019-02-14T09:06:54.806Z,12.80
2019-02-14T09:09:27.889Z,13.43
2019-02-14T09:11:58.784Z,13.43
2019-02-14T09:14:30.223Z,13.67
2019-02-14T09:17:01.733Z,14.70
2019-02-14T09:19:33.761Z,12.87
2019-02-14T09:22:05.243Z,13.23
2019-02-14T09:24:36.188Z,14.83
2019-02-14T09:27:07.612Z,13.33
2019-02-14T09:29:39.018Z,15.40
2019-02-14T09:32:10.117Z,12.60
2019-02-14T09:34:41.729Z,13.80
2019-02-14T09:37:13.115Z,13.17
2019-02-14T09:39:44.565Z,16.10
2019-02-14T09:42:16.339Z,15.80
2019-02-14T09:44:47.674Z,16.50
2019-02-14T09:47:19.402Z,17.73
2019-02-14T09:49:50.453Z,16.43
2019-02-14T09:52:23.288Z,19.90
2019-02-14T09:54:55.064Z,18.47
2019-02-14T09:57:26.366Z,16.03
2019-02-14T09:59:57.009Z,18.83
2019-02-14T10:02:28.852Z,19.23
2019-02-14T10:05:00.240Z,18.80
2019-02-14T10:07:30.991Z,17.80
2019-02-14T10:10:02.994Z,19.37
2019-02-14T10:12:34.393Z,19.10
2019-02-14T10:15:05.869Z,18.67
2019-02-14T10:18:02.518Z,19.30
2019-02-14T10:20:33.845Z,18.23
2019-02-14T10:23:05.060Z,17.43
2019-02-14T10:25:36.173Z,19.60
2019-02-14T10:28:07.652Z,16.97
2019-02-14T10:30:40.187Z,22.27
2019-02-14T10:33:11.483Z,20.37
2019-02-14T10:35:42.597Z,19.17
2019-02-14T10:38:22.019Z,18.20
2019-02-14T10:40:47.314Z,18.00
2019-02-14T10:43:18.603Z,17.27
2019-02-14T10:45:50.033Z,19.43
2019-02-14T10:48:21.767Z,20.47
2019-02-14T10:50:53.221Z,21.53
2019-02-14T10:53:24.570Z,18.97
2019-02-14T10:55:55.623Z,20.47
2019-02-14T10:58:26.722Z,20.10
2019-02-14T11:01:11.839Z,24.63
2019-02-14T11:03:42.859Z,22.17
2019-02-14T11:06:13.991Z,21.37
2019-02-14T11:08:45.692Z,18.67
2019-02-14T11:11:16.972Z,20.20
2019-02-14T11:13:48.674Z,23.87
2019-02-14T11:16:20.045Z,26.53
2019-02-14T11:18:51.082Z,24.13
2019-02-14T11:21:22.269Z,24.70
2019-02-14T11:23:53.324Z,25.93
2019-02-14T11:26:24.724Z,25.23
2019-02-14T11:28:56.047Z,24.43
2019-02-14T11:31:27.472Z,22.63
2019-02-14T11:33:59.054Z,21.13
2019-02-14T11:36:30.322Z,22.30
2019-02-14T11:39:40.240Z,22.53
2019-02-14T11:42:11.899Z,26.33
2019-02-14T11:44:43.575Z,24.07
2019-02-14T11:47:14.703Z,25.20
2019-02-14T11:49:46.322Z,24.53
2019-02-14T11:52:17.696Z,28.70
2019-02-14T11:54:49.197Z,23.03
2019-02-14T11:57:20.898Z,29.73
2019-02-14T11:59:52.660Z,29.43
2019-02-14T12:02:24.420Z,25.20
2019-02-14T12:04:55.774Z,27.97
2019-02-14T12:07:26.864Z,24.80
2019-02-14T12:09:58.597Z,24.60
2019-02-14T12:12:30.141Z,24.90
2019-02-14T12:15:01.275Z,21.90
2019-02-14T12:17:32.989Z,22.30
2019-02-14T12:20:04.181Z,22.63
2019-02-14T12:22:35.843Z,20.43
2019-02-14T12:25:08.719Z,21.83
2019-02-14T12:27:40.043Z,21.63
2019-02-14T12:30:12.911Z,19.07
2019-02-14T12:32:44.385Z,20.63
2019-02-14T12:35:18.174Z,20.40
2019-02-14T12:37:49.552Z,18.97
2019-02-14T12:40:21.181Z,18.87
2019-02-14T12:42:51.829Z,19.97
2019-02-14T12:45:25.764Z,20.77
2019-02-14T12:47:56.821Z,21.83
2019-02-14T12:50:28.453Z,22.00
2019-02-14T12:52:59.482Z,22.83
2019-02-14T12:55:31.400Z,23.27
2019-02-14T12:58:02.714Z,21.37
2019-02-14T13:00:33.664Z,20.50
2019-02-14T13:03:05.424Z,22.00
2019-02-14T13:05:36.741Z,21.17
2019-02-14T13:08:08.492Z,19.43
2019-02-14T13:10:39.938Z,20.47
2019-02-14T13:13:11.670Z,19.50
2019-02-14T13:15:43.915Z,21.03
2019-02-14T13:18:15.617Z,19.23
2019-02-14T13:20:47.332Z,24.50
2019-02-14T13:23:18.990Z,23.00
2019-02-14T13:25:50.481Z,22.37
2019-02-14T13:28:49.362Z,23.97
2019-02-14T13:31:20.112Z,23.80
2019-02-14T13:33:51.828Z,21.27
2019-02-14T13:36:23.866Z,22.00
2019-02-14T13:38:55.781Z,19.67
2019-02-14T13:41:31.129Z,24.60
2019-02-14T13:44:00.992Z,23.50
2019-02-14T13:46:32.012Z,24.00
2019-02-14T13:49:03.502Z,21.73
2019-02-14T13:51:35.490Z,21.27
2019-02-14T13:54:06.819Z,20.40
2019-02-14T13:56:38.189Z,22.47
2019-02-14T13:59:10.518Z,20.60
2019-02-14T14:01:41.883Z,21.50
2019-02-14T14:04:13.145Z,23.30
2019-02-14T14:06:44.818Z,22.47
2019-02-14T14:09:16.032Z,23.93
2019-02-14T14:11:47.322Z,21.83
2019-02-14T14:14:18.440Z,22.57
2019-02-14T14:16:50.307Z,19.63
2019-02-14T14:19:22.227Z,23.47
2019-02-14T14:21:54.881Z,23.97
2019-02-14T14:24:26.582Z,20.90
2019-02-14T14:26:58.542Z,20.50
2019-02-14T14:29:31.443Z,20.87
2019-02-14T14:32:03.108Z,22.83
2019-02-14T14:34:33.866Z,20.53
2019-02-14T14:37:05.367Z,21.63
2019-02-14T14:39:36.983Z,20.67
2019-02-14T14:42:11.481Z,17.77
2019-02-14T14:44:47.368Z,21.43
2019-02-14T14:47:37.819Z,22.53
2019-02-14T14:50:08.430Z,18.67
2019-02-14T14:52:40.116Z,18.13
2019-02-14T14:55:11.102Z,20.13
2019-02-14T14:57:42.177Z,21.87
2019-02-14T15:00:48.017Z,24.97
2019-02-14T15:04:11.725Z,21.70
2019-02-14T15:06:43.613Z,20.33
2019-02-14T15:09:15.785Z,20.70
2019-02-14T15:11:49.815Z,22.87
2019-02-14T15:14:22.851Z,18.63
2019-02-14T15:16:55.736Z,22.90
2019-02-14T15:19:27.006Z,19.30
2019-02-14T15:22:00.553Z,19.80
2019-02-14T15:24:32.386Z,20.90
2019-02-14T15:27:04.942Z,19.17
2019-02-14T15:29:35.911Z,18.30
2019-02-14T15:32:07.780Z,18.10
2019-02-14T15:34:45.449Z,23.10
2019-02-14T15:37:26.355Z,19.13
2019-02-14T15:40:08.380Z,18.70
2019-02-14T15:42:35.889Z,24.40
2019-02-14T15:45:07.879Z,26.80
2019-02-14T15:47:40.383Z,27.50
2019-02-14T15:50:11.814Z,27.70
2019-02-14T15:52:44.203Z,31.93
2019-02-14T15:55:15.769Z,29.00
2019-02-14T15:57:47.511Z,27.00
2019-02-14T16:00:20.497Z,26.93
2019-02-14T16:03:03.742Z,26.30
2019-02-14T16:05:35.506Z,28.63
2019-02-14T16:08:06.451Z,32.60
2019-02-14T16:10:37.376Z,28.90
2019-02-14T16:13:09.858Z,32.67
2019-02-14T16:15:41.166Z,49.00
2019-02-14T16:18:12.246Z,50.73
2019-02-14T16:20:44.375Z,35.83
2019-02-14T16:23:20.052Z,37.20
2019-02-14T16:25:52.016Z,32.50
2019-02-14T16:28:23.649Z,29.67
2019-02-14T16:30:56.808Z,27.93
2019-02-14T16:34:15.473Z,29.80
2019-02-14T16:36:48.857Z,24.23
2019-02-14T16:39:22.943Z,28.97
2019-02-14T16:41:55.485Z,23.57
2019-02-14T16:44:26.736Z,30.13
2019-02-14T16:46:57.849Z,31.87
2019-02-14T16:49:37.115Z,32.43
2019-02-14T16:52:08.643Z,30.37
2019-02-14T16:55:02.397Z,32.13
2019-02-14T16:57:38.814Z,26.13
2019-02-14T17:00:11.973Z,31.30
2019-02-14T17:02:42.955Z,27.57
2019-02-14T17:05:13.666Z,27.63
2019-02-14T17:07:45.733Z,22.20
2019-02-14T17:10:16.796Z,28.03
2019-02-14T17:12:48.113Z,32.60
2019-02-14T17:15:19.559Z,30.37
2019-02-14T17:17:51.334Z,25.97
2019-02-14T17:20:22.088Z,23.40
2019-02-14T17:22:53.877Z,31.70
2019-02-14T17:25:25.891Z,28.17
2019-02-14T17:27:57.024Z,26.63
2019-02-14T17:30:28.480Z,24.77
2019-02-14T17:32:59.534Z,28.73
2019-02-14T17:35:30.491Z,25.73
2019-02-14T17:38:01.274Z,25.63
2019-02-14T17:40:31.937Z,24.80
2019-02-14T17:43:05.685Z,24.27
2019-02-14T17:45:36.786Z,24.93
2019-02-14T17:48:07.497Z,25.53
2019-02-14T17:50:38.660Z,28.90
2019-02-14T17:53:10.437Z,26.57
2019-02-14T18:00:15.192Z,25.27
2019-02-14T18:07:38.406Z,25.00
2019-02-14T18:10:11.197Z,21.00
2019-02-14T18:12:44.394Z,23.20
2019-02-14T18:15:15.160Z,21.60
2019-02-14T18:18:18.816Z,24.47
2019-02-14T18:21:59.968Z,18.67
2019-02-14T18:25:09.093Z,18.17
2019-02-14T18:32:13.963Z,18.13
2019-02-14T18:35:19.779Z,19.53
2019-02-14T18:37:58.425Z,19.77
2019-02-14T18:40:32.901Z,20.60
2019-02-14T18:43:18.986Z,21.33
2019-02-14T18:46:16.502Z,20.43
2019-02-14T18:48:50.530Z,23.63
2019-02-14T18:51:23.190Z,25.30
2019-02-14T18:54:08.857Z,22.10
2019-02-14T18:56:42.575Z,27.60
2019-02-14T18:59:30.596Z,23.17
2019-02-14T19:02:00.241Z,19.53
2019-02-14T19:04:56.999Z,18.90
2019-02-14T19:08:05.230Z,18.77
2019-02-14T19:10:57.091Z,22.47
2019-02-14T19:13:53.134Z,21.93
2019-02-14T19:17:05.319Z,24.37
2019-02-14T19:20:08.496Z,20.33
2019-02-14T19:22:39.294Z,25.53
2019-02-14T19:28:22.858Z,25.23
2019-02-14T19:31:30.504Z,23.90
2019-02-14T19:34:33.507Z,20.70
2019-02-14T19:37:06.647Z,26.60
2019-02-14T19:39:43.291Z,26.67
2019-02-14T19:42:14.839Z,25.27
2019-02-14T19:44:46.172Z,22.47
2019-02-14T19:47:17.650Z,22.20
2019-02-14T19:49:49.101Z,28.10
2019-02-14T19:52:20.853Z,22.70
2019-02-14T19:54:51.919Z,20.33
2019-02-14T19:57:25.806Z,17.17
2019-02-14T19:59:57.910Z,23.20
2019-02-14T20:03:51.021Z,19.67
2019-02-14T20:05:47.252Z,22.73
2019-02-14T20:08:19.005Z,26.20
2019-02-14T20:10:50.614Z,20.73
2019-02-14T20:13:22.343Z,19.23
2019-02-14T20:15:53.416Z,19.00
2019-02-14T20:18:39.161Z,21.37
2019-02-14T20:21:12.893Z,25.63
2019-02-14T20:23:44.018Z,18.93
2019-02-14T20:26:17.512Z,19.33
2019-02-14T20:29:38.133Z,22.20
2019-02-14T20:32:09.579Z,20.83
2019-02-14T20:35:02.158Z,20.23
2019-02-14T20:37:33.585Z,26.97
2019-02-14T20:40:06.198Z,18.67
2019-02-14T20:43:02.020Z,20.33
2019-02-14T20:45:33.208Z,17.37
2019-02-14T20:49:04.783Z,19.20
2019-02-14T20:52:21.850Z,22.50
2019-02-14T20:55:24.275Z,21.00
2019-02-14T20:58:03.352Z,28.93
2019-02-14T21:00:44.957Z,29.47
2019-02-14T21:03:22.918Z,23.03
2019-02-14T21:05:54.042Z,19.37
2019-02-14T21:08:26.201Z,17.67
2019-02-14T21:14:30.016Z,21.53
2019-02-14T21:18:30.473Z,21.27
2019-02-14T21:21:01.348Z,23.03
2019-02-14T21:24:05.304Z,22.70
2019-02-14T21:26:44.792Z,21.07
2019-02-14T21:29:15.757Z,19.60
2019-02-14T21:31:58.893Z,23.90
2019-02-14T21:34:30.091Z,20.27
2019-02-14T21:37:01.177Z,20.87
2019-02-14T21:39:39.354Z,20.37
2019-02-14T21:42:19.827Z,23.33
2019-02-14T21:44:43.650Z,25.90
2019-02-14T21:47:15.506Z,22.90
2019-02-14T21:49:46.854Z,22.23
2019-02-14T21:52:17.883Z,27.27
2019-02-14T21:54:49.236Z,19.67
2019-02-14T21:58:05.967Z,24.57
2019-02-14T22:00:52.863Z,26.93
2019-02-14T22:03:24.194Z,21.83
2019-02-14T22:05:56.379Z,24.00
2019-02-14T22:08:31.140Z,21.47
2019-02-14T22:11:14.522Z,22.87
2019-02-14T22:13:45.458Z,22.50
2019-02-14T22:16:23.409Z,20.83
2019-02-14T22:18:55.394Z,25.83
2019-02-14T22:21:56.202Z,24.87
2019-02-14T22:24:21.093Z,24.23
2019-02-14T22:26:53.073Z,24.57
2019-02-14T22:29:24.663Z,22.80
2019-02-14T22:31:55.959Z,21.77
2019-02-14T22:34:31.389Z,21.37
2019-02-14T22:37:02.657Z,25.17
2019-02-14T22:39:37.504Z,23.13
2019-02-14T22:42:28.753Z,22.63
2019-02-14T22:45:02.050Z,22.80
2019-02-14T22:47:34.157Z,24.37
2019-02-14T22:50:06.080Z,25.37
2019-02-14T22:52:39.535Z,19.17
2019-02-14T22:55:12.605Z,26.07
2019-02-14T22:57:44.729Z,25.33
2019-02-14T23:00:45.815Z,25.10
2019-02-14T23:03:21.113Z,23.40
2019-02-14T23:05:58.190Z,23.53
2019-02-14T23:08:29.867Z,26.30
2019-02-14T23:11:27.948Z,29.63
2019-02-14T23:13:58.287Z,25.73
2019-02-14T23:16:29.664Z,26.83
2019-02-14T23:19:03.305Z,22.60
2019-02-14T23:21:40.364Z,27.17
2019-02-14T23:24:11.741Z,28.33
2019-02-14T23:26:43.669Z,23.93
2019-02-14T23:29:14.643Z,27.67
2019-02-14T23:31:45.755Z,28.67
2019-02-14T23:34:16.742Z,28.03
2019-02-14T23:36:48.396Z,30.17
2019-02-14T23:39:21.371Z,25.57
2019-02-14T23:42:11.738Z,23.93
2019-02-14T23:44:43.210Z,27.80
2019-02-14T23:47:24.352Z,26.80
2019-02-14T23:49:55.709Z,26.47
2019-02-14T23:52:27.009Z,26.03
2019-02-14T23:54:58.684Z,24.37
2019-02-14T23:57:30.609Z,25.50
